createdAt,value
2022-07-25T00:03:04.733Z,9.70
2022-07-25T00:07:05.963Z,10.50
2022-07-25T00:11:07.163Z,10.30
2022-07-25T00:15:09.302Z,10.40
2022-07-25T00:19:10.518Z,9.70
2022-07-25T00:23:11.726Z,11.80
2022-07-25T00:27:12.868Z,10.27
2022-07-25T00:31:14.153Z,9.93
2022-07-25T00:35:15.546Z,11.47
2022-07-25T00:39:16.972Z,9.80
2022-07-25T00:43:18.198Z,10.83
2022-07-25T00:47:19.498Z,10.67
2022-07-25T00:51:20.924Z,10.60
2022-07-25T00:55:23.547Z,10.37
2022-07-25T00:59:24.780Z,10.10
2022-07-25T01:03:26.649Z,10.90
2022-07-25T01:07:28.925Z,10.10
2022-07-25T01:11:30.627Z,10.60
2022-07-25T01:15:32.276Z,10.33
2022-07-25T01:19:33.544Z,10.17
2022-07-25T01:23:34.669Z,11.60
2022-07-25T01:27:35.878Z,10.70
2022-07-25T01:31:37.185Z,11.73
2022-07-25T01:35:43.266Z,12.53
2022-07-25T01:39:41.822Z,11.77
2022-07-25T01:43:43.042Z,12.07
2022-07-25T01:47:44.241Z,11.17
2022-07-25T01:51:45.472Z,11.37
2022-07-25T01:55:48.019Z,12.60
2022-07-25T01:59:49.271Z,13.17
2022-07-25T02:03:50.473Z,13.77
2022-07-25T02:07:51.719Z,14.03
2022-07-25T02:11:53.140Z,13.57
2022-07-25T02:15:54.461Z,12.73
2022-07-25T02:19:55.689Z,13.77
2022-07-25T02:23:57.605Z,12.10
2022-07-25T02:27:59.437Z,13.07
2022-07-25T02:32:00.744Z,13.20
2022-07-25T02:36:02.049Z,13.83
2022-07-25T02:40:05.114Z,13.20
2022-07-25T02:44:06.702Z,14.60
2022-07-25T02:48:08.297Z,14.63
2022-07-25T02:52:09.426Z,14.00
2022-07-25T02:56:10.862Z,13.10
2022-07-25T03:00:14.668Z,13.57
2022-07-25T03:04:16.242Z,14.03
2022-07-25T03:08:18.408Z,14.60
2022-07-25T03:12:19.657Z,14.37
2022-07-25T03:16:20.893Z,15.57
2022-07-25T03:20:22.076Z,14.50
2022-07-25T03:24:23.196Z,12.77
2022-07-25T03:28:24.595Z,14.50
2022-07-25T03:32:25.936Z,13.27
2022-07-25T03:36:27.160Z,14.13
2022-07-25T03:40:28.765Z,13.40
2022-07-25T03:44:29.901Z,14.80
2022-07-25T03:48:31.139Z,14.63
2022-07-25T03:52:32.341Z,14.50
2022-07-25T03:56:41.541Z,14.60
2022-07-25T04:00:43.295Z,14.87
2022-07-25T04:04:46.043Z,14.03
2022-07-25T04:08:47.400Z,15.20
2022-07-25T04:12:48.606Z,13.97
2022-07-25T04:16:49.915Z,14.07
2022-07-25T04:20:51.147Z,14.10
2022-07-25T04:24:52.368Z,14.00
2022-07-25T04:28:53.710Z,15.37
2022-07-25T04:32:55.037Z,18.70
2022-07-25T04:36:56.233Z,17.23
2022-07-25T04:40:57.585Z,15.63
2022-07-25T04:44:58.785Z,13.37
2022-07-25T04:49:00.147Z,15.17
2022-07-25T04:53:01.337Z,14.80
2022-07-25T04:57:04.463Z,13.60
2022-07-25T05:01:06.593Z,13.83
2022-07-25T05:05:08.669Z,14.07
2022-07-25T05:09:11.692Z,13.37
2022-07-25T05:13:12.806Z,13.40
2022-07-25T05:17:14.416Z,13.17
2022-07-25T05:21:15.642Z,14.37
2022-07-25T05:25:17.138Z,12.23
2022-07-25T05:29:18.837Z,12.13
2022-07-25T05:33:20.056Z,15.17
2022-07-25T05:37:21.278Z,14.17
2022-07-25T05:41:22.508Z,13.37
2022-07-25T05:45:23.912Z,13.10
2022-07-25T05:49:25.053Z,11.93
2022-07-25T05:53:26.266Z,11.90
2022-07-25T05:57:27.490Z,11.67
2022-07-25T06:01:28.790Z,12.50
2022-07-25T06:05:30.153Z,12.83
2022-07-25T06:09:31.387Z,11.97
2022-07-25T06:13:34.128Z,11.27
2022-07-25T06:17:35.842Z,12.17
2022-07-25T06:21:37.055Z,11.17
2022-07-25T06:25:38.280Z,10.93
2022-07-25T06:29:39.501Z,11.10
2022-07-25T06:33:40.782Z,10.23
2022-07-25T06:37:42.020Z,10.23
2022-07-25T06:41:43.317Z,10.33
2022-07-25T06:45:46.481Z,12.20
2022-07-25T06:49:47.759Z,11.43
2022-07-25T06:53:49.221Z,11.83
2022-07-25T06:57:50.478Z,11.90
2022-07-25T07:01:52.039Z,11.60
2022-07-25T07:05:53.300Z,11.10
2022-07-25T07:09:54.453Z,11.03
2022-07-25T07:13:56.671Z,11.13
2022-07-25T07:17:57.984Z,11.90
2022-07-25T07:21:59.202Z,11.93
2022-07-25T07:26:00.326Z,12.00
2022-07-25T07:30:01.544Z,11.20
2022-07-25T07:34:02.810Z,12.77
2022-07-25T07:38:04.003Z,13.13
2022-07-25T07:42:05.280Z,11.47
2022-07-25T07:46:07.088Z,11.63
2022-07-25T07:50:10.653Z,12.20
2022-07-25T07:54:30.182Z,12.70
2022-07-25T07:58:31.396Z,11.87
2022-07-25T08:02:32.675Z,12.50
2022-07-25T08:06:33.836Z,13.27
2022-07-25T08:10:37.382Z,12.83
2022-07-25T08:14:38.600Z,13.17
2022-07-25T08:18:39.802Z,12.67
2022-07-25T08:22:43.741Z,10.90
2022-07-25T08:26:44.970Z,12.10
2022-07-25T08:30:47.376Z,12.50
2022-07-25T08:34:48.656Z,11.63
2022-07-25T08:38:49.783Z,12.03
2022-07-25T08:42:51.792Z,11.43
2022-07-25T08:46:54.293Z,12.10
2022-07-25T08:50:58.924Z,12.53
2022-07-25T08:55:02.552Z,12.40
2022-07-25T08:59:03.795Z,13.17
2022-07-25T09:03:08.328Z,12.13
2022-07-25T09:07:09.511Z,12.10
2022-07-25T09:11:10.732Z,12.50
2022-07-25T09:15:15.791Z,11.67
2022-07-25T09:19:20.717Z,10.80
2022-07-25T09:23:31.854Z,10.80
2022-07-25T09:27:33.888Z,12.03
2022-07-25T09:31:35.224Z,10.90
2022-07-25T09:35:38.353Z,10.80
2022-07-25T09:39:49.019Z,12.33
2022-07-25T09:43:50.526Z,12.00
2022-07-25T09:47:54.760Z,11.60
2022-07-25T09:51:55.982Z,11.97
2022-07-25T09:55:57.492Z,12.10
2022-07-25T10:00:00.255Z,12.40
2022-07-25T10:04:17.372Z,12.47
2022-07-25T10:08:20.818Z,12.50
2022-07-25T10:12:23.343Z,12.40
2022-07-25T10:16:26.273Z,11.93
2022-07-25T10:20:28.623Z,12.00
2022-07-25T10:24:38.380Z,12.97
2022-07-25T10:28:48.843Z,12.17
2022-07-25T10:33:03.181Z,11.27
2022-07-25T10:37:17.730Z,11.27
2022-07-25T10:41:21.242Z,10.20
2022-07-25T10:45:26.150Z,10.30
2022-07-25T10:49:32.472Z,10.37
2022-07-25T10:53:39.871Z,13.30
2022-07-25T10:57:55.047Z,10.63
2022-07-25T11:01:48.079Z,10.87
2022-07-25T11:05:51.424Z,10.30
2022-07-25T11:10:00.981Z,9.80
2022-07-25T11:14:03.191Z,10.70
2022-07-25T11:18:04.589Z,9.87
2022-07-25T11:22:06.516Z,11.30
2022-07-25T11:26:09.902Z,10.67
2022-07-25T11:30:14.257Z,10.10
2022-07-25T11:34:15.680Z,10.70
2022-07-25T11:38:16.902Z,11.00
2022-07-25T11:42:19.537Z,9.43
2022-07-25T11:46:20.855Z,9.87
2022-07-25T11:50:25.883Z,10.30
2022-07-25T11:54:27.112Z,10.87
2022-07-25T11:58:28.328Z,10.10
2022-07-25T12:02:32.820Z,10.07
2022-07-25T12:06:34.176Z,10.13
2022-07-25T12:10:36.407Z,10.97
2022-07-25T12:14:43.194Z,11.20
2022-07-25T12:18:44.394Z,9.70
2022-07-25T12:22:47.337Z,9.47
2022-07-25T12:26:48.563Z,9.40
2022-07-25T12:30:55.960Z,7.40
2022-07-25T12:34:53.465Z,7.30
2022-07-25T12:38:54.687Z,6.70
2022-07-25T12:42:57.380Z,6.97
2022-07-25T12:46:58.564Z,7.10
2022-07-25T12:50:59.796Z,7.20
2022-07-25T12:55:01.135Z,8.17
2022-07-25T12:59:02.345Z,7.30
2022-07-25T13:03:03.867Z,6.83
2022-07-25T13:07:05.326Z,7.27
2022-07-25T13:11:06.544Z,7.27
2022-07-25T13:15:08.738Z,7.87
2022-07-25T13:19:10.699Z,6.90
2022-07-25T13:23:13.640Z,7.70
2022-07-25T13:27:18.126Z,7.47
2022-07-25T13:31:21.036Z,7.70
2022-07-25T13:35:29.298Z,8.27
2022-07-25T13:39:26.506Z,7.67
2022-07-25T13:43:27.730Z,8.77
2022-07-25T13:47:30.537Z,8.83
2022-07-25T13:51:31.878Z,8.13
2022-07-25T13:55:33.305Z,8.00
2022-07-25T13:59:35.361Z,8.37
2022-07-25T14:03:36.707Z,7.73
2022-07-25T14:07:38.428Z,8.63
2022-07-25T14:11:39.588Z,8.63
2022-07-25T14:15:40.796Z,8.07
2022-07-25T14:19:42.028Z,8.23
2022-07-25T14:23:43.230Z,7.23
2022-07-25T14:27:44.585Z,7.70
2022-07-25T14:31:46.414Z,10.30
2022-07-25T14:35:47.629Z,10.50
2022-07-25T14:39:49.669Z,11.10
2022-07-25T14:43:51.296Z,11.27
2022-07-25T14:47:53.218Z,10.53
2022-07-25T14:51:54.638Z,10.10
2022-07-25T14:55:55.880Z,9.70
2022-07-25T14:59:57.008Z,10.10
2022-07-25T15:03:58.231Z,9.50
2022-07-25T15:07:59.851Z,8.93
2022-07-25T15:12:00.978Z,9.70
2022-07-25T15:16:04.254Z,9.17
2022-07-25T15:20:07.055Z,9.10
2022-07-25T15:24:08.302Z,9.30
2022-07-25T15:28:09.412Z,9.70
2022-07-25T15:32:10.648Z,10.33
2022-07-25T15:36:11.881Z,9.57
2022-07-25T15:40:13.190Z,9.90
2022-07-25T15:44:14.308Z,11.37
2022-07-25T15:48:16.758Z,10.00
2022-07-25T15:52:18.107Z,10.30
2022-07-25T15:56:19.379Z,14.10
2022-07-25T16:00:20.999Z,11.03
2022-07-25T16:04:23.392Z,10.40
2022-07-25T16:08:24.655Z,12.23
2022-07-25T16:12:28.548Z,12.40
2022-07-25T16:16:29.688Z,10.90
2022-07-25T16:20:31.706Z,9.87
2022-07-25T16:24:33.090Z,9.70
2022-07-25T16:28:35.611Z,8.10
2022-07-25T16:32:37.031Z,7.33
2022-07-25T16:36:38.158Z,8.00
2022-07-25T16:40:39.622Z,8.50
2022-07-25T16:44:41.326Z,8.20
2022-07-25T16:48:42.571Z,8.20
2022-07-25T16:52:43.799Z,8.50
2022-07-25T16:56:45.015Z,7.63
2022-07-25T17:00:46.147Z,7.87
2022-07-25T17:04:47.664Z,8.10
2022-07-25T17:08:49.010Z,7.43
2022-07-25T17:12:50.672Z,7.17
2022-07-25T17:16:51.931Z,8.43
2022-07-25T17:20:53.991Z,7.00
2022-07-25T17:24:55.482Z,8.40
2022-07-25T17:28:57.721Z,7.03
2022-07-25T17:32:59.132Z,7.47
2022-07-25T17:37:02.163Z,8.17
2022-07-25T17:41:03.807Z,7.90
2022-07-25T17:45:06.329Z,7.57
2022-07-25T17:49:08.021Z,7.70
2022-07-25T17:53:09.603Z,7.70
2022-07-25T17:57:10.730Z,7.90
2022-07-25T18:01:11.928Z,8.13
2022-07-25T18:05:13.827Z,7.37
2022-07-25T18:09:15.241Z,6.73
2022-07-25T18:13:17.794Z,6.00
2022-07-25T18:17:20.712Z,6.90
2022-07-25T18:21:23.114Z,5.87
2022-07-25T18:25:24.245Z,6.40
2022-07-25T18:29:25.579Z,5.90
2022-07-25T18:33:26.709Z,6.70
2022-07-25T18:37:28.024Z,5.60
2022-07-25T18:41:30.347Z,5.67
2022-07-25T18:45:31.789Z,4.60
2022-07-25T18:49:32.916Z,5.70
2022-07-25T18:53:34.598Z,4.50
2022-07-25T18:57:36.310Z,3.37
2022-07-25T19:01:37.787Z,4.00
2022-07-25T19:05:39.047Z,4.10
2022-07-25T19:09:40.594Z,3.93
2022-07-25T19:13:50.693Z,4.10
2022-07-25T19:17:44.979Z,4.03
2022-07-25T19:21:46.282Z,4.47
2022-07-25T19:25:47.617Z,3.60
2022-07-25T19:29:48.834Z,3.80
2022-07-25T19:33:50.061Z,4.13
2022-07-25T19:37:51.282Z,3.87
2022-07-25T19:41:52.917Z,4.00
2022-07-25T19:45:54.102Z,3.70
2022-07-25T19:49:55.485Z,3.70
2022-07-25T19:53:57.037Z,4.00
2022-07-25T19:57:59.201Z,4.13
2022-07-25T20:02:00.596Z,3.50
2022-07-25T20:06:07.591Z,3.90
2022-07-25T20:10:06.380Z,4.20
2022-07-25T20:14:08.341Z,3.67
2022-07-25T20:18:10.022Z,4.10
2022-07-25T20:22:11.569Z,4.20
2022-07-25T20:26:13.795Z,4.53
2022-07-25T20:30:15.051Z,4.20
2022-07-25T20:34:16.272Z,3.57
2022-07-25T20:38:19.608Z,3.93
2022-07-25T20:42:22.675Z,3.53
2022-07-25T20:46:23.995Z,3.73
2022-07-25T20:50:25.267Z,3.50
2022-07-25T20:54:26.373Z,4.13
2022-07-25T20:58:27.582Z,4.30
2022-07-25T21:02:28.815Z,4.53
2022-07-25T21:06:30.047Z,3.30
2022-07-25T21:10:33.170Z,4.13
2022-07-25T21:14:34.390Z,3.50
2022-07-25T21:18:35.866Z,3.80
2022-07-25T21:22:37.165Z,4.43
2022-07-25T21:26:38.756Z,4.17
2022-07-25T21:30:41.944Z,3.87
2022-07-25T21:34:45.012Z,4.23
2022-07-25T21:38:46.442Z,4.43
2022-07-25T21:42:47.548Z,4.00
2022-07-25T21:46:48.879Z,4.17
2022-07-25T21:50:50.435Z,4.03
2022-07-25T21:54:52.113Z,4.20
2022-07-25T21:58:53.261Z,4.27
2022-07-25T22:02:55.581Z,4.80
2022-07-25T22:06:56.805Z,4.27
2022-07-25T22:10:58.034Z,4.27
2022-07-25T22:14:59.649Z,4.70
2022-07-25T22:19:00.975Z,4.83
2022-07-25T22:23:02.800Z,4.40
2022-07-25T22:27:04.196Z,4.40
2022-07-25T22:31:05.405Z,4.50
2022-07-25T22:35:07.551Z,4.00
2022-07-25T22:39:10.262Z,4.00
2022-07-25T22:43:11.840Z,4.40
2022-07-25T22:47:13.072Z,3.83
2022-07-25T22:51:14.297Z,3.60
2022-07-25T22:55:16.233Z,3.57
2022-07-25T22:59:17.360Z,4.20
2022-07-25T23:03:18.704Z,3.73
2022-07-25T23:07:20.012Z,3.97
2022-07-25T23:11:21.210Z,4.00
2022-07-25T23:15:22.344Z,3.83
2022-07-25T23:19:25.363Z,3.07
2022-07-25T23:23:26.503Z,3.70
2022-07-25T23:27:29.015Z,3.70
2022-07-25T23:31:32.084Z,3.20
2022-07-25T23:35:33.587Z,4.00
2022-07-25T23:39:34.921Z,3.80
2022-07-25T23:43:56.107Z,3.93
2022-07-25T23:47:40.829Z,3.70
2022-07-25T23:51:42.290Z,3.07
2022-07-25T23:55:43.410Z,3.20
2022-07-25T23:59:44.934Z,2.90
